CheckWX is a tool to help pilots better visualize weather data.  It is not intended as a substitute for an official pre-flight weather briefing.

20:32:57 UTC

KALB METAR
Albany International Airport
Albany, New York, USA
Current

42 mins ago

KALB 181951Z 03005KT 5SM -SN FEW017 OVC020 M04/M08 A2995 RMK AO2 SLP147 PCPN VRY LGT P0000 T10391083
Observed
Feb-18 @ 19:51 UTC
Wind
  • 030° at 5 KTS
Visibility
5 SM
Flight Rules
MVFR
Conditions
Light Snow
Cloud Levels
  • Few at 1,700' AGL
  • Overcast at 2,000' AGL
Temperature
-4°C / 25°F
Dewpoint
-8°C / 18°F
Humidity
74%
Altimeter
29.95" Hg
Pressure
1014.7 hPa
Current Rain
0.01"
Previous

1 hour ago

KALB 181924Z 36004KT 3SM -SN BKN020 OVC035 M04/M08 A2994 RMK AO2 PCPN VRY LGT P0000 T10391083
Observed
Feb-18 @ 19:24 UTC
Wind
  • 360° at 4 KTS
Visibility
3 SM
Flight Rules
MVFR
Conditions
Light Snow
Cloud Levels
  • Broken at 2,000' AGL
  • Overcast at 3,500' AGL
Temperature
-4°C / 25°F
Dewpoint
-8°C / 18°F
Humidity
74%
Altimeter
29.94" Hg
Pressure
1013.92 hPa
Current Rain
0.01"
Previous

1 hour ago

KALB 181911Z 34006KT 2SM -SN SCT024 OVC035 M04/M08 A2994 RMK AO2 TWR VIS 3 P0000 T10391083
Observed
Feb-18 @ 19:11 UTC
Wind
  • 340° at 6 KTS
Visibility
2 SM
Flight Rules
IFR
Conditions
Light Snow
Cloud Levels
  • Scattered at 2,400' AGL
  • Overcast at 3,500' AGL
Temperature
-4°C / 25°F
Dewpoint
-8°C / 18°F
Humidity
74%
Altimeter
29.94" Hg
Pressure
1013.92 hPa
Current Rain
0.01"